Time;durP1;ratioP1;P1;durP2;ratioP2;P2;SDS_P1;SDS_P2;PMS_P1;PMS_P2;Temp;Humidity;BMP_temperature;BMP_pressure;BME280_temperature;BME280_humidity;BME280_pressure;Samples;Min_cycle;Max_cycle;Signal;HPM_P1;HPM_P2
2021/09/04 00:00:07;;;;;;;3.90;3.22;;;23.00;55.40;;;;;;4926828;29;20391;-69
2021/09/04 00:02:33;;;;;;;3.30;2.80;;;23.00;55.40;;;;;;4925159;29;20403;-68
2021/09/04 00:04:59;;;;;;;3.60;3.10;;;23.00;55.30;;;;;;4925008;29;20407;-69
2021/09/04 00:07:28;;;;;;;3.30;2.97;;;23.00;55.30;;;;;;4926275;29;20408;-70
2021/09/04 00:09:54;;;;;;;3.42;3.00;;;23.00;55.40;;;;;;4926654;29;20407;-69
2021/09/04 00:12:19;;;;;;;3.50;2.78;;;23.00;55.40;;;;;;4926136;29;20652;-68
2021/09/04 00:14:45;;;;;;;4.63;3.20;;;23.00;55.30;;;;;;4926634;29;20399;-71
2021/09/04 00:17:11;;;;;;;3.63;3.08;;;23.00;55.40;;;;;;4926119;29;20443;-70
2021/09/04 00:19:38;;;;;;;3.78;3.08;;;23.00;55.40;;;;;;4925524;29;20431;-68
2021/09/04 00:22:04;;;;;;;3.67;3.10;;;23.00;55.50;;;;;;4926757;29;20458;-70
2021/09/04 00:24:30;;;;;;;3.77;3.20;;;22.90;55.30;;;;;;4927247;29;20411;-70
2021/09/04 00:26:55;;;;;;;3.63;2.65;;;22.90;55.30;;;;;;4927389;29;20402;-70
2021/09/04 00:29:21;;;;;;;3.83;3.07;;;22.90;55.30;;;;;;4927070;29;20407;-67
2021/09/04 00:31:48;;;;;;;3.80;2.90;;;22.90;55.30;;;;;;4925874;29;20427;-70
2021/09/04 00:34:14;;;;;;;3.80;3.00;;;22.90;55.30;;;;;;4924760;29;20483;-69
2021/09/04 00:36:40;;;;;;;3.40;2.83;;;22.90;55.30;;;;;;4926954;29;20567;-67
2021/09/04 00:39:07;;;;;;;3.70;3.10;;;22.90;55.30;;;;;;4927284;29;20934;-70
2021/09/04 00:41:34;;;;;;;3.40;2.90;;;22.90;55.30;;;;;;4926489;29;20411;-67
2021/09/04 00:44:01;;;;;;;4.38;3.20;;;22.90;55.30;;;;;;4927221;29;20392;-70
2021/09/04 00:46:27;;;;;;;3.45;2.92;;;22.90;55.30;;;;;;4926993;29;20418;-70
2021/09/04 00:48:53;;;;;;;3.15;2.72;;;22.90;55.30;;;;;;4926687;29;20400;-68
2021/09/04 00:51:18;;;;;;;3.63;3.07;;;22.90;55.40;;;;;;4927173;29;20816;-70
2021/09/04 00:53:44;;;;;;;4.00;3.20;;;22.80;55.30;;;;;;4926531;29;21162;-70
2021/09/04 00:56:13;;;;;;;3.60;3.03;;;22.80;55.70;;;;;;4932931;29;20416;-70
2021/09/04 00:58:39;;;;;;;3.45;2.97;;;22.80;55.80;;;;;;4926746;29;20403;-70
2021/09/04 01:01:05;;;;;;;4.10;2.78;;;22.90;55.90;;;;;;4926567;29;20430;-70
2021/09/04 01:03:31;;;;;;;3.47;2.80;;;22.90;55.80;;;;;;4926191;29;20880;-70
2021/09/04 01:05:57;;;;;;;3.55;3.00;;;22.90;55.70;;;;;;4926718;29;20940;-70
2021/09/04 01:08:23;;;;;;;4.88;3.00;;;22.90;55.80;;;;;;4926776;29;20396;-70
2021/09/04 01:10:53;;;;;;;3.83;2.93;;;22.80;55.70;;;;;;4926459;29;20436;-70
2021/09/04 01:13:19;;;;;;;4.07;3.08;;;22.80;55.90;;;;;;4916950;29;20435;-70
2021/09/04 01:15:46;;;;;;;3.40;2.80;;;22.80;55.90;;;;;;4925723;29;20411;-68
2021/09/04 01:18:11;;;;;;;4.35;2.88;;;22.80;55.90;;;;;;4926513;29;20430;-70
2021/09/04 01:20:37;;;;;;;3.70;2.90;;;22.80;55.80;;;;;;4926348;29;20404;-70
2021/09/04 01:23:03;;;;;;;3.80;3.05;;;22.80;55.80;;;;;;4926427;29;20876;-70
2021/09/04 01:25:32;;;;;;;3.47;2.85;;;22.80;55.80;;;;;;4925742;29;20407;-70
2021/09/04 01:28:00;;;;;;;3.58;2.85;;;22.80;55.80;;;;;;4926051;29;20404;-70
2021/09/04 01:30:26;;;;;;;3.70;2.97;;;22.80;55.80;;;;;;4926189;29;20419;-69
2021/09/04 01:32:52;;;;;;;4.15;3.00;;;22.80;55.70;;;;;;4926118;29;20403;-70
2021/09/04 01:35:24;;;;;;;3.90;3.05;;;22.80;55.70;;;;;;4925904;29;20392;-70
2021/09/04 01:37:50;;;;;;;3.83;3.00;;;22.80;55.70;;;;;;4925443;29;20455;-70
2021/09/04 01:40:17;;;;;;;3.80;2.90;;;22.70;55.70;;;;;;4940602;29;20816;-68
2021/09/04 01:42:44;;;;;;;3.75;3.10;;;22.70;55.70;;;;;;4925775;29;20403;-70
2021/09/04 01:45:11;;;;;;;3.63;2.90;;;22.70;55.60;;;;;;4924016;29;20450;-70
2021/09/04 01:47:37;;;;;;;3.05;2.65;;;22.80;55.60;;;;;;4925412;29;20403;-68
2021/09/04 01:50:04;;;;;;;3.53;2.70;;;22.70;55.50;;;;;;4925827;29;20447;-69
2021/09/04 01:52:29;;;;;;;3.77;2.80;;;22.70;55.60;;;;;;4925627;29;20453;-70
2021/09/04 01:54:55;;;;;;;3.78;2.83;;;22.70;55.50;;;;;;4917058;29;20431;-70
2021/09/04 01:57:21;;;;;;;3.33;2.77;;;22.70;55.50;;;;;;4925334;29;20430;-69
2021/09/04 01:59:46;;;;;;;3.50;2.92;;;22.70;55.40;;;;;;4924947;29;20490;-69
2021/09/04 02:02:14;;;;;;;3.20;2.80;;;22.70;55.40;;;;;;4925390;29;20415;-70
2021/09/04 02:04:40;;;;;;;3.30;2.80;;;22.70;55.40;;;;;;4925370;29;20458;-68
2021/09/04 02:07:05;;;;;;;3.53;2.50;;;22.70;55.50;;;;;;4925646;29;20412;-71
2021/09/04 02:09:31;;;;;;;3.20;2.60;;;22.70;55.40;;;;;;4925012;29;20403;-69
2021/09/04 02:11:57;;;;;;;3.40;2.80;;;22.70;55.30;;;;;;4924171;29;20427;-70
2021/09/04 02:14:23;;;;;;;3.45;2.97;;;22.70;55.30;;;;;;4925402;29;20455;-69
2021/09/04 02:16:49;;;;;;;3.10;2.60;;;22.60;55.10;;;;;;4925434;29;20458;-70
2021/09/04 02:19:15;;;;;;;2.97;2.65;;;22.60;55.20;;;;;;4925496;29;20465;-70
2021/09/04 02:21:40;;;;;;;3.30;2.87;;;22.60;55.20;;;;;;4924887;29;20659;-70
2021/09/04 02:24:06;;;;;;;3.60;2.90;;;22.60;55.10;;;;;;4924077;29;20404;-70
2021/09/04 02:26:32;;;;;;;3.33;2.77;;;22.60;55.00;;;;;;4925059;29;20427;-70
2021/09/04 02:28:58;;;;;;;4.13;2.90;;;22.60;55.10;;;;;;4925483;29;20403;-70
2021/09/04 02:31:24;;;;;;;3.65;2.83;;;22.60;55.10;;;;;;4925223;29;20431;-70
2021/09/04 02:33:55;;;;;;;3.20;2.50;;;22.60;55.00;;;;;;4924948;29;20395;-71
2021/09/04 02:36:21;;;;;;;3.60;2.90;;;22.60;55.10;;;;;;4925582;29;20466;-69
2021/09/04 02:38:47;;;;;;;3.20;2.63;;;22.60;54.70;;;;;;4925369;29;20485;-71
2021/09/04 02:41:13;;;;;;;3.67;2.80;;;22.60;55.00;;;;;;4924849;29;20445;-69
2021/09/04 02:43:40;;;;;;;3.03;2.60;;;22.60;54.90;;;;;;4924695;29;20755;-69
2021/09/04 02:46:06;;;;;;;3.13;2.60;;;22.60;54.90;;;;;;4925122;29;20880;-69
2021/09/04 02:48:32;;;;;;;3.15;2.50;;;22.60;54.80;;;;;;4925400;29;20470;-68
2021/09/04 02:50:58;;;;;;;3.50;2.73;;;22.50;54.80;;;;;;4923689;29;20994;-71
2021/09/04 02:53:24;;;;;;;3.20;2.80;;;22.50;54.50;;;;;;4923697;29;20408;-68
2021/09/04 02:55:50;;;;;;;3.53;2.65;;;22.60;54.80;;;;;;4927419;29;20403;-70
2021/09/04 02:58:15;;;;;;;3.43;2.57;;;22.50;54.80;;;;;;4928765;29;21225;-70
2021/09/04 03:00:41;;;;;;;2.80;2.42;;;22.60;54.70;;;;;;4928852;29;20765;-70
2021/09/04 03:03:07;;;;;;;2.93;2.53;;;22.50;54.80;;;;;;4928790;29;20406;-70
2021/09/04 03:05:32;;;;;;;3.15;2.58;;;22.50;54.70;;;;;;4928646;29;20410;-67
2021/09/04 03:07:58;;;;;;;4.23;2.23;;;22.50;55.00;;;;;;4928361;29;20808;-69
2021/09/04 03:10:24;;;;;;;4.10;2.50;;;22.60;54.90;;;;;;4928794;29;20545;-68
2021/09/04 03:12:50;;;;;;;3.67;2.40;;;22.50;55.30;;;;;;4928624;28;20900;-70
2021/09/04 03:15:16;;;;;;;3.07;2.23;;;22.60;55.80;;;;;;4927985;29;20399;-69
2021/09/04 03:17:42;;;;;;;2.97;2.42;;;22.50;55.50;;;;;;4929747;29;20423;-70
2021/09/04 03:20:08;;;;;;;4.35;2.30;;;22.50;55.40;;;;;;4914656;29;20413;-69
2021/09/04 03:22:34;;;;;;;3.33;2.38;;;22.60;56.40;;;;;;4920854;29;20505;-69
2021/09/04 03:25:00;;;;;;;4.28;2.50;;;22.60;56.00;;;;;;4928344;29;20391;-68
2021/09/04 03:27:26;;;;;;;3.58;2.35;;;22.60;56.00;;;;;;4928437;29;20495;-67
2021/09/04 03:29:52;;;;;;;3.33;2.60;;;22.70;56.00;;;;;;4927872;29;20391;-68
2021/09/04 03:32:17;;;;;;;3.28;2.58;;;22.70;56.20;;;;;;4927884;29;21018;-67
2021/09/04 03:34:43;;;;;;;3.93;2.30;;;22.70;55.80;;;;;;4927711;29;20450;-68
2021/09/04 03:37:09;;;;;;;3.80;2.40;;;22.70;55.70;;;;;;4928004;29;20403;-66
2021/09/04 03:39:34;;;;;;;4.80;2.40;;;22.70;55.70;;;;;;4926876;29;20399;-68
2021/09/04 03:42:00;;;;;;;3.90;2.50;;;22.70;55.80;;;;;;4927721;29;20883;-68
2021/09/04 03:44:26;;;;;;;3.47;2.23;;;22.70;55.70;;;;;;4928291;29;20483;-68
2021/09/04 03:46:51;;;;;;;2.92;2.15;;;22.70;55.50;;;;;;4927138;29;20779;-68
2021/09/04 03:49:17;;;;;;;4.00;2.40;;;22.70;55.10;;;;;;4929576;29;20395;-70
2021/09/04 03:51:42;;;;;;;4.30;2.30;;;22.60;55.10;;;;;;4927060;29;20439;-68
2021/09/04 03:54:09;;;;;;;4.90;2.33;;;22.70;55.80;;;;;;4919532;29;20412;-69
2021/09/04 03:56:35;;;;;;;4.10;2.30;;;22.60;55.10;;;;;;4941973;29;20423;-69
2021/09/04 03:59:01;;;;;;;3.67;2.20;;;22.60;55.40;;;;;;4927123;29;20407;-69
2021/09/04 04:01:26;;;;;;;6.22;2.20;;;22.70;55.40;;;;;;4927895;29;20411;-70
2021/09/04 04:03:52;;;;;;;3.60;2.23;;;22.70;55.30;;;;;;4926940;29;20490;-69
2021/09/04 04:06:18;;;;;;;4.45;2.30;;;22.70;55.80;;;;;;4926690;29;20491;-70
2021/09/04 04:08:43;;;;;;;4.50;2.10;;;22.70;55.40;;;;;;4927518;29;20921;-70
2021/09/04 04:11:12;;;;;;;3.25;1.90;;;22.70;55.50;;;;;;4927298;29;20473;-69
2021/09/04 04:13:39;;;;;;;3.63;2.10;;;22.70;55.60;;;;;;4927082;29;20438;-68
2021/09/04 04:16:05;;;;;;;4.20;2.00;;;22.70;55.60;;;;;;4927039;29;20411;-66
2021/09/04 04:18:31;;;;;;;4.10;2.10;;;22.70;55.60;;;;;;4927554;29;20406;-68
2021/09/04 04:20:58;;;;;;;3.17;2.05;;;22.70;55.10;;;;;;4927001;29;20950;-68
2021/09/04 04:23:24;;;;;;;3.83;2.08;;;22.60;55.10;;;;;;4927281;29;20459;-67
2021/09/04 04:25:50;;;;;;;3.20;2.20;;;22.60;55.20;;;;;;4927047;29;20399;-68
2021/09/04 04:28:17;;;;;;;3.30;2.00;;;22.60;55.00;;;;;;4927370;29;20423;-67
2021/09/04 04:30:43;;;;;;;5.43;2.40;;;22.60;55.10;;;;;;4925846;29;20422;-67
2021/09/04 04:33:09;;;;;;;5.28;2.35;;;22.50;55.10;;;;;;4927133;29;21425;-68
2021/09/04 04:35:35;;;;;;;7.82;2.78;;;22.50;54.80;;;;;;4927003;29;20406;-66
2021/09/04 04:38:00;;;;;;;5.77;2.40;;;22.50;54.30;;;;;;4926693;29;20427;-68
2021/09/04 04:40:26;;;;;;;9.55;2.70;;;22.50;54.00;;;;;;4926898;29;20402;-68
2021/09/04 04:42:52;;;;;;;10.37;2.77;;;22.50;53.70;;;;;;4941574;29;20412;-68
2021/09/04 04:45:17;;;;;;;7.55;2.47;;;22.40;53.50;;;;;;4927081;29;20395;-67
2021/09/04 04:47:43;;;;;;;7.67;2.70;;;22.40;53.30;;;;;;4926588;29;20451;-66
2021/09/04 04:50:09;;;;;;;6.70;2.40;;;22.40;53.30;;;;;;4926259;29;20416;-66
2021/09/04 04:52:35;;;;;;;7.45;2.60;;;22.40;53.10;;;;;;4927036;29;20475;-67
2021/09/04 04:55:00;;;;;;;4.73;2.10;;;22.40;53.20;;;;;;4926657;29;20403;-67
2021/09/04 04:57:26;;;;;;;4.63;2.45;;;22.40;53.00;;;;;;4926768;29;20403;-67
2021/09/04 04:59:52;;;;;;;5.30;2.00;;;22.40;53.20;;;;;;4926292;29;20407;-66
2021/09/04 05:02:17;;;;;;;7.25;2.47;;;22.40;53.20;;;;;;4924121;29;20450;-66
2021/09/04 05:04:43;;;;;;;4.73;2.37;;;22.40;53.10;;;;;;4926262;29;20796;-68
2021/09/04 05:07:09;;;;;;;4.88;2.30;;;22.40;53.20;;;;;;4926507;29;21214;-67
2021/09/04 05:09:34;;;;;;;4.90;2.25;;;22.40;53.20;;;;;;4926435;29;20407;-67
2021/09/04 05:12:00;;;;;;;4.40;2.10;;;22.40;53.40;;;;;;4925953;29;20505;-67
2021/09/04 05:14:26;;;;;;;3.80;2.20;;;22.40;53.40;;;;;;4911118;29;20406;-67
2021/09/04 05:16:52;;;;;;;4.05;2.03;;;22.40;53.40;;;;;;4925404;29;20808;-67
2021/09/04 05:19:17;;;;;;;4.63;2.50;;;22.40;53.60;;;;;;4924916;29;20400;-67
2021/09/04 05:21:43;;;;;;;4.32;2.00;;;22.40;53.50;;;;;;4924501;29;20705;-67
2021/09/04 05:24:08;;;;;;;4.30;2.00;;;22.30;53.70;;;;;;4926509;29;21052;-68
2021/09/04 05:26:34;;;;;;;3.30;2.00;;;22.40;53.70;;;;;;4926089;29;20812;-67
2021/09/04 05:29:01;;;;;;;3.85;2.08;;;22.40;53.80;;;;;;4926206;29;20399;-67
2021/09/04 05:31:26;;;;;;;3.37;1.90;;;22.40;53.70;;;;;;4925537;29;20462;-68
2021/09/04 05:33:52;;;;;;;2.83;2.00;;;22.40;53.80;;;;;;4925821;29;20932;-67
2021/09/04 05:36:18;;;;;;;3.03;1.90;;;22.30;53.70;;;;;;4924945;29;20405;-66
2021/09/04 05:38:43;;;;;;;3.07;1.80;;;22.30;53.80;;;;;;4925951;29;20565;-69
2021/09/04 05:41:09;;;;;;;2.53;1.83;;;22.40;53.90;;;;;;4915167;29;20415;-68
2021/09/04 05:43:35;;;;;;;3.40;1.70;;;22.30;53.90;;;;;;4926009;29;20415;-67
2021/09/04 05:46:01;;;;;;;3.40;2.00;;;22.30;54.00;;;;;;4925095;29;20738;-67
2021/09/04 05:48:27;;;;;;;2.83;1.95;;;22.30;54.00;;;;;;4925961;29;20391;-67
2021/09/04 05:50:52;;;;;;;2.53;2.00;;;22.30;53.90;;;;;;4925718;29;21563;-67
2021/09/04 05:53:18;;;;;;;3.63;1.90;;;22.30;54.00;;;;;;4925919;29;20466;-68
2021/09/04 05:55:44;;;;;;;2.83;1.93;;;22.30;54.10;;;;;;4925016;29;20435;-66
2021/09/04 05:58:09;;;;;;;3.10;2.20;;;22.30;54.10;;;;;;4925899;29;20435;-68
2021/09/04 06:00:35;;;;;;;3.55;2.03;;;22.30;54.10;;;;;;4925168;29;20855;-68
2021/09/04 06:03:01;;;;;;;2.55;2.00;;;22.30;54.10;;;;;;4925554;29;20392;-68
2021/09/04 06:05:27;;;;;;;3.27;2.07;;;22.30;54.10;;;;;;4925610;29;20808;-67
2021/09/04 06:07:53;;;;;;;3.58;2.20;;;22.30;54.20;;;;;;4925214;29;20395;-66
2021/09/04 06:10:18;;;;;;;3.22;2.08;;;22.30;54.20;;;;;;4925463;29;20462;-68
2021/09/04 06:12:44;;;;;;;3.10;2.10;;;22.30;54.30;;;;;;4925814;29;20466;-66
2021/09/04 06:15:10;;;;;;;2.35;1.95;;;22.30;54.30;;;;;;4925536;29;20414;-67
2021/09/04 06:17:35;;;;;;;3.13;2.07;;;22.30;54.30;;;;;;4923225;29;20427;-67
2021/09/04 06:20:01;;;;;;;2.60;1.90;;;22.30;54.40;;;;;;4923445;29;20431;-69
2021/09/04 06:22:27;;;;;;;2.90;2.20;;;22.30;54.50;;;;;;4925538;29;20399;-66
2021/09/04 06:24:53;;;;;;;3.28;2.03;;;22.30;54.50;;;;;;4925398;29;20408;-68
2021/09/04 06:27:19;;;;;;;2.63;2.00;;;22.30;54.50;;;;;;4925349;29;20777;-67
2021/09/04 06:29:45;;;;;;;2.33;2.00;;;22.30;54.60;;;;;;4923360;29;20900;-68
2021/09/04 06:32:10;;;;;;;2.50;2.10;;;22.30;54.70;;;;;;4925188;29;20428;-66
2021/09/04 06:34:36;;;;;;;2.67;2.00;;;22.30;54.60;;;;;;4925418;29;20403;-66
2021/09/04 06:37:02;;;;;;;2.58;2.03;;;22.30;54.60;;;;;;4923725;29;21006;-67
2021/09/04 06:39:28;;;;;;;2.75;2.00;;;22.30;54.60;;;;;;4924648;29;20402;-66
2021/09/04 06:41:53;;;;;;;3.03;2.07;;;22.30;54.70;;;;;;4924558;29;20414;-68
2021/09/04 06:44:19;;;;;;;2.47;1.67;;;22.30;54.80;;;;;;4925239;29;21205;-67
2021/09/04 06:46:44;;;;;;;2.90;2.20;;;22.30;54.90;;;;;;4925356;29;21158;-67
2021/09/04 06:49:10;;;;;;;2.97;2.00;;;22.30;54.80;;;;;;4925094;29;20396;-65
2021/09/04 06:51:36;;;;;;;2.90;2.10;;;22.30;54.90;;;;;;4925352;29;20858;-68
2021/09/04 06:54:01;;;;;;;3.45;2.17;;;22.30;54.90;;;;;;4924613;29;20895;-67
2021/09/04 06:56:27;;;;;;;3.38;2.00;;;22.30;54.90;;;;;;4925232;29;20490;-66
2021/09/04 06:58:53;;;;;;;2.58;2.25;;;22.30;55.00;;;;;;4925121;29;20558;-67
2021/09/04 07:01:19;;;;;;;2.60;2.03;;;22.40;55.00;;;;;;4925403;29;20431;-67
2021/09/04 07:03:44;;;;;;;2.60;1.95;;;22.30;55.00;;;;;;4924703;29;20388;-67
2021/09/04 07:06:10;;;;;;;2.30;1.90;;;22.40;55.20;;;;;;4924695;29;20454;-67
2021/09/04 07:08:36;;;;;;;2.78;2.10;;;22.30;55.20;;;;;;4924975;29;20470;-67
2021/09/04 07:11:02;;;;;;;2.77;2.10;;;22.40;55.20;;;;;;4924882;29;20419;-67
2021/09/04 07:13:28;;;;;;;2.22;1.70;;;22.40;55.20;;;;;;4925177;29;20494;-67
2021/09/04 07:15:54;;;;;;;2.73;2.10;;;22.40;55.20;;;;;;4924270;29;20555;-67
2021/09/04 07:18:20;;;;;;;2.50;2.00;;;22.40;55.20;;;;;;4924329;29;20442;-68
2021/09/04 07:20:47;;;;;;;3.40;1.95;;;22.40;55.30;;;;;;4925143;29;20435;-66
2021/09/04 07:23:13;;;;;;;2.40;1.98;;;22.40;55.40;;;;;;4924705;29;20752;-66
2021/09/04 07:25:38;;;;;;;2.70;2.07;;;22.40;55.30;;;;;;4924885;29;20404;-66
2021/09/04 07:28:06;;;;;;;2.40;2.00;;;22.40;55.40;;;;;;4924317;29;20396;-66
2021/09/04 07:30:32;;;;;;;2.47;2.13;;;22.40;55.30;;;;;;4910080;29;20432;-67
2021/09/04 07:32:58;;;;;;;2.50;2.13;;;22.40;55.30;;;;;;4924707;29;20465;-67
2021/09/04 07:35:24;;;;;;;2.85;2.30;;;22.40;55.40;;;;;;4924358;29;20403;-67
2021/09/04 07:37:49;;;;;;;3.17;2.28;;;22.40;55.40;;;;;;4924433;29;20407;-66
2021/09/04 07:40:15;;;;;;;3.17;2.30;;;22.40;55.50;;;;;;4924787;29;20396;-66
2021/09/04 07:42:41;;;;;;;2.50;2.20;;;22.40;55.50;;;;;;4927168;29;20475;-67
2021/09/04 07:45:07;;;;;;;2.92;2.17;;;22.40;55.30;;;;;;4928140;29;20399;-67
2021/09/04 07:47:33;;;;;;;2.40;2.20;;;22.50;55.50;;;;;;4928103;29;20423;-66
2021/09/04 07:49:58;;;;;;;3.33;2.40;;;22.40;55.50;;;;;;4927588;29;20403;-67
2021/09/04 07:52:24;;;;;;;2.78;2.30;;;22.50;55.50;;;;;;4928293;29;20498;-68
2021/09/04 07:54:49;;;;;;;2.80;2.30;;;22.50;55.50;;;;;;4926590;29;20892;-67
2021/09/04 07:57:15;;;;;;;3.38;2.40;;;22.50;55.60;;;;;;4928171;29;20439;-67
2021/09/04 07:59:41;;;;;;;2.85;2.38;;;22.50;55.60;;;;;;4927945;29;20427;-68
2021/09/04 08:02:06;;;;;;;3.13;2.30;;;22.50;55.70;;;;;;4927269;29;20407;-68
2021/09/04 08:04:32;;;;;;;2.80;2.30;;;22.50;55.70;;;;;;4927878;29;20414;-67
2021/09/04 08:06:58;;;;;;;3.00;2.40;;;22.50;55.70;;;;;;4927949;29;20871;-67
2021/09/04 08:09:23;;;;;;;2.58;2.17;;;22.50;55.70;;;;;;4927540;29;20791;-66
2021/09/04 08:11:49;;;;;;;2.80;2.30;;;22.50;55.70;;;;;;4927621;29;20423;-66
2021/09/04 08:14:14;;;;;;;2.88;2.33;;;22.50;55.70;;;;;;4927609;29;20407;-68
2021/09/04 08:16:40;;;;;;;3.63;2.50;;;22.50;55.70;;;;;;4927452;29;20436;-66
2021/09/04 08:19:06;;;;;;;3.03;2.30;;;22.60;55.80;;;;;;4926403;29;20412;-68
2021/09/04 08:21:31;;;;;;;2.75;2.40;;;22.50;55.70;;;;;;4926211;29;20412;-68
2021/09/04 08:23:57;;;;;;;2.77;2.33;;;22.60;55.80;;;;;;4927054;29;20398;-66
2021/09/04 08:26:23;;;;;;;3.08;2.25;;;22.50;55.70;;;;;;4927485;29;20478;-67
2021/09/04 08:28:49;;;;;;;3.38;2.40;;;22.50;55.70;;;;;;4927552;29;20400;-68
2021/09/04 08:31:15;;;;;;;2.80;2.30;;;22.60;55.80;;;;;;4927417;29;20479;-67
2021/09/04 08:33:41;;;;;;;3.30;2.50;;;22.60;55.80;;;;;;4926699;29;21391;-66
2021/09/04 08:36:06;;;;;;;3.03;2.28;;;22.60;55.80;;;;;;4926914;29;20400;-67
2021/09/04 08:38:32;;;;;;;2.80;2.20;;;22.60;55.90;;;;;;4927267;29;20414;-66
2021/09/04 08:40:58;;;;;;;3.20;2.50;;;22.60;55.90;;;;;;4927405;29;20903;-67
2021/09/04 08:43:23;;;;;;;2.80;2.40;;;22.60;56.00;;;;;;4927032;29;20885;-67
2021/09/04 08:45:49;;;;;;;3.05;2.20;;;22.60;55.90;;;;;;4927224;29;20478;-66
2021/09/04 08:48:18;;;;;;;2.60;2.10;;;22.70;55.90;;;;;;4926152;29;20806;-68
2021/09/04 08:50:44;;;;;;;3.00;2.47;;;22.70;55.90;;;;;;4926465;29;20423;-67
2021/09/04 08:53:10;;;;;;;2.92;2.42;;;22.70;55.80;;;;;;4926633;29;20876;-67
2021/09/04 08:55:36;;;;;;;3.00;2.45;;;22.70;55.70;;;;;;4926985;29;20392;-67
2021/09/04 08:58:02;;;;;;;2.90;2.43;;;22.70;55.70;;;;;;4925150;29;20407;-67
2021/09/04 09:00:33;;;;;;;2.92;2.45;;;22.70;55.70;;;;;;4926993;29;21014;-66
2021/09/04 09:02:59;;;;;;;3.10;2.50;;;22.70;55.70;;;;;;4926479;29;20404;-69
2021/09/04 09:05:28;;;;;;;3.20;2.58;;;22.70;55.60;;;;;;4927004;29;20872;-67
2021/09/04 09:07:54;;;;;;;3.20;2.40;;;22.70;55.60;;;;;;4926169;29;20419;-66
2021/09/04 09:10:22;;;;;;;2.85;2.05;;;22.70;55.50;;;;;;4926920;29;20403;-68
2021/09/04 09:12:49;;;;;;;2.80;2.40;;;22.70;55.50;;;;;;4926495;29;20419;-66
2021/09/04 09:15:23;;;;;;;2.80;2.45;;;22.70;55.50;;;;;;4926484;29;20430;-66
2021/09/04 09:18:13;;;;;;;2.95;2.60;;;22.70;55.50;;;;;;4916782;29;20506;-67
2021/09/04 09:20:40;;;;;;;3.03;2.55;;;22.70;55.50;;;;;;4924991;29;20459;-68
2021/09/04 09:23:14;;;;;;;2.92;2.42;;;22.70;55.60;;;;;;4915277;29;20435;-67
2021/09/04 09:25:41;;;;;;;3.60;2.50;;;22.70;55.60;;;;;;4926810;29;20931;-67
2021/09/04 09:28:13;;;;;;;2.92;2.40;;;22.80;55.70;;;;;;4925826;29;20399;-67
2021/09/04 09:30:50;;;;;;;3.80;2.70;;;22.80;55.70;;;;;;4926355;29;20411;-68
2021/09/04 09:33:19;;;;;;;3.20;2.80;;;22.80;55.70;;;;;;4926204;29;21510;-67
2021/09/04 09:35:51;;;;;;;3.43;2.60;;;22.80;55.70;;;;;;4926083;29;20392;-67
2021/09/04 09:38:19;;;;;;;3.70;2.95;;;22.80;55.90;;;;;;4925731;29;20399;-67
2021/09/04 09:40:46;;;;;;;3.08;2.70;;;22.80;55.70;;;;;;4925972;29;20432;-68
2021/09/04 09:43:23;;;;;;;3.78;3.28;;;22.80;55.70;;;;;;4926237;29;20410;-67
2021/09/04 09:45:53;;;;;;;3.80;3.00;;;22.80;55.80;;;;;;4926098;29;20884;-67
2021/09/04 09:48:23;;;;;;;3.38;2.95;;;22.80;55.90;;;;;;4924997;29;20404;-67
2021/09/04 09:50:50;;;;;;;3.47;2.90;;;22.80;55.80;;;;;;4925887;29;20418;-68
2021/09/04 09:53:17;;;;;;;3.40;2.67;;;22.80;56.00;;;;;;4925769;29;20530;-67
2021/09/04 09:55:45;;;;;;;3.78;2.72;;;22.80;55.90;;;;;;4925741;29;20882;-67
2021/09/04 09:58:12;;;;;;;3.20;2.80;;;22.80;55.70;;;;;;4925895;29;20404;-66
2021/09/04 10:00:38;;;;;;;3.07;2.77;;;22.80;56.00;;;;;;4925862;29;20419;-66
2021/09/04 10:03:06;;;;;;;3.63;2.80;;;22.80;56.00;;;;;;4925356;29;20414;-67
2021/09/04 10:05:33;;;;;;;4.43;3.25;;;22.90;56.10;;;;;;4924628;29;20530;-67
2021/09/04 10:07:59;;;;;;;3.55;2.85;;;22.90;55.90;;;;;;4924634;29;20403;-68
2021/09/04 10:10:29;;;;;;;3.20;2.77;;;22.90;56.70;;;;;;4925274;29;20396;-66
2021/09/04 10:12:56;;;;;;;3.50;2.83;;;22.90;56.10;;;;;;4925563;29;20737;-67
2021/09/04 10:15:26;;;;;;;3.88;2.78;;;22.90;55.80;;;;;;4925570;29;20402;-67
2021/09/04 10:17:55;;;;;;;3.60;2.75;;;22.90;56.10;;;;;;4925524;29;20510;-67
2021/09/04 10:20:23;;;;;;;3.97;3.03;;;22.90;55.80;;;;;;4925184;29;20415;-67
2021/09/04 10:22:50;;;;;;;3.50;3.07;;;22.90;55.90;;;;;;4925482;29;20404;-68
2021/09/04 10:25:18;;;;;;;3.63;2.90;;;22.90;55.90;;;;;;4923879;29;20403;-67
2021/09/04 10:27:46;;;;;;;3.78;3.10;;;22.90;55.90;;;;;;4925247;29;20400;-67
2021/09/04 10:30:34;;;;;;;3.25;2.83;;;22.90;56.10;;;;;;4923415;29;20884;-66
2021/09/04 10:33:03;;;;;;;3.15;2.65;;;22.90;56.20;;;;;;4925174;28;20450;-67
2021/09/04 10:35:38;;;;;;;3.30;2.80;;;22.90;55.80;;;;;;4939729;29;20404;-68
2021/09/04 10:38:19;;;;;;;3.63;2.90;;;22.90;55.70;;;;;;4924781;29;20930;-67
2021/09/04 10:40:50;;;;;;;3.53;2.80;;;22.90;55.70;;;;;;4925058;29;20399;-66
2021/09/04 10:43:19;;;;;;;3.45;2.60;;;23.00;55.60;;;;;;4925247;29;20407;-67
2021/09/04 10:45:47;;;;;;;3.05;2.75;;;23.00;55.70;;;;;;4925120;29;20395;-67
2021/09/04 10:48:18;;;;;;;3.08;2.70;;;23.00;55.80;;;;;;4924706;29;20498;-67
2021/09/04 10:51:02;;;;;;;3.47;3.03;;;23.00;55.70;;;;;;4925140;29;20796;-68
2021/09/04 10:53:44;;;;;;;3.67;2.58;;;23.00;55.70;;;;;;4925189;29;20399;-67
2021/09/04 10:56:21;;;;;;;3.55;2.70;;;23.00;55.80;;;;;;4923396;29;20490;-67
2021/09/04 10:58:47;;;;;;;3.10;2.75;;;23.00;55.70;;;;;;4925271;29;20391;-67
2021/09/04 11:01:27;;;;;;;3.10;2.70;;;23.00;55.70;;;;;;4939431;29;20400;-67
2021/09/04 11:03:55;;;;;;;3.13;2.60;;;23.00;55.80;;;;;;4924400;29;20383;-67
2021/09/04 11:06:23;;;;;;;3.37;2.83;;;23.00;55.70;;;;;;4924296;29;20961;-67
2021/09/04 11:08:49;;;;;;;3.42;2.97;;;23.00;55.60;;;;;;4925018;29;20391;-68
2021/09/04 11:11:24;;;;;;;2.75;2.42;;;23.00;55.70;;;;;;4923627;29;20439;-68
2021/09/04 11:13:54;;;;;;;3.72;2.90;;;23.10;55.60;;;;;;4924790;29;20482;-66
2021/09/04 11:16:33;;;;;;;3.40;3.00;;;23.10;55.70;;;;;;4926251;29;20482;-67
2021/09/04 11:19:18;;;;;;;3.28;2.58;;;23.10;55.70;;;;;;4928192;29;20989;-66
2021/09/04 11:22:01;;;;;;;3.25;2.50;;;23.10;55.60;;;;;;4926686;29;21211;-68
2021/09/04 11:24:38;;;;;;;3.25;2.90;;;23.10;55.50;;;;;;4928421;29;20796;-67
2021/09/04 11:27:11;;;;;;;3.20;2.83;;;23.10;55.50;;;;;;4928643;29;20484;-67
2021/09/04 11:29:37;;;;;;;3.17;2.88;;;23.10;55.40;;;;;;4928284;29;20805;-68
2021/09/04 11:32:03;;;;;;;3.27;2.80;;;23.10;55.60;;;;;;4928105;29;20431;-67
2021/09/04 11:34:46;;;;;;;3.35;2.75;;;23.10;55.60;;;;;;4928311;29;20398;-68
2021/09/04 11:37:28;;;;;;;3.30;2.95;;;23.20;55.40;;;;;;4928387;29;20415;-67
2021/09/04 11:40:21;;;;;;;3.42;3.05;;;23.20;55.40;;;;;;4928063;29;20491;-66
2021/09/04 11:42:49;;;;;;;3.40;2.95;;;23.20;55.50;;;;;;4928092;29;20896;-66
2021/09/04 11:45:20;;;;;;;3.08;2.78;;;23.20;55.50;;;;;;4927977;29;20411;-66
2021/09/04 11:47:48;;;;;;;3.10;2.80;;;23.20;55.40;;;;;;4926817;29;20432;-68
2021/09/04 11:50:22;;;;;;;3.03;2.67;;;23.20;55.40;;;;;;4927554;29;20406;-67
2021/09/04 11:52:48;;;;;;;3.58;2.90;;;23.30;55.50;;;;;;4927997;29;20855;-67
2021/09/04 11:55:23;;;;;;;4.80;3.08;;;23.20;55.40;;;;;;4926576;29;20411;-66
2021/09/04 11:57:52;;;;;;;5.00;3.10;;;23.20;55.10;;;;;;4927853;29;20404;-68
2021/09/04 12:00:23;;;;;;;4.78;3.30;;;23.30;55.00;;;;;;4926509;29;20742;-68
2021/09/04 12:02:54;;;;;;;5.35;3.60;;;23.20;54.80;;;;;;4927918;29;20396;-67
2021/09/04 12:05:22;;;;;;;6.15;3.45;;;23.20;54.60;;;;;;4927881;29;20825;-68
2021/09/04 12:07:49;;;;;;;5.32;3.28;;;23.20;55.20;;;;;;4927665;29;20403;-68
2021/09/04 12:10:20;;;;;;;10.15;3.80;;;23.20;54.40;;;;;;4927199;29;20474;-68
2021/09/04 12:12:46;;;;;;;7.60;3.57;;;23.30;54.60;;;;;;4927595;29;20840;-67
2021/09/04 12:15:13;;;;;;;6.68;3.90;;;23.30;54.60;;;;;;4927708;29;20455;-67
2021/09/04 12:17:56;;;;;;;6.43;3.80;;;23.30;54.60;;;;;;4927434;29;20416;-68
2021/09/04 12:20:33;;;;;;;6.07;3.70;;;23.30;55.00;;;;;;4927120;29;20418;-66
2021/09/04 12:23:10;;;;;;;9.27;4.50;;;23.30;54.90;;;;;;4927184;29;20888;-68
2021/09/04 12:25:36;;;;;;;6.97;4.80;;;23.40;55.00;;;;;;4927263;29;20427;-67
2021/09/04 12:28:07;;;;;;;9.20;5.18;;;23.50;54.90;;;;;;4927056;29;20412;-66
2021/09/04 12:31:06;;;;;;;10.43;4.97;;;23.50;54.60;;;;;;4926929;29;20407;-67
2021/09/04 12:33:33;;;;;;;10.10;6.72;;;23.60;54.70;;;;;;4925996;29;20956;-69
2021/09/04 12:36:03;;;;;;;12.48;6.50;;;23.60;54.70;;;;;;4927439;29;20590;-69
2021/09/04 12:38:49;;;;;;;10.95;7.20;;;23.70;54.70;;;;;;4926932;29;20492;-69
2021/09/04 12:41:16;;;;;;;12.55;7.22;;;23.70;55.30;;;;;;4926969;29;20449;-69
2021/09/04 12:43:48;;;;;;;15.18;8.18;;;23.70;55.20;;;;;;4926871;29;20403;-69
2021/09/04 12:46:25;;;;;;;16.55;7.80;;;23.80;55.30;;;;;;4926656;29;20903;-70